createdAt,value
2023-04-20T00:00:43.416Z,3.95
2023-04-20T00:03:56.327Z,4.32
2023-04-20T00:07:01.749Z,4.00
2023-04-20T00:10:07.294Z,4.35
2023-04-20T00:13:15.273Z,3.78
2023-04-20T00:16:20.368Z,4.65
2023-04-20T00:19:27.264Z,5.03
2023-04-20T00:22:32.223Z,4.40
2023-04-20T00:25:37.938Z,4.57
2023-04-20T00:28:45.610Z,3.75
2023-04-20T00:31:50.993Z,4.25
2023-04-20T00:34:56.009Z,3.55
2023-04-20T00:38:01.711Z,5.22
2023-04-20T00:41:06.781Z,4.15
2023-04-20T00:44:14.738Z,4.93
2023-04-20T00:47:21.367Z,4.82
2023-04-20T00:50:26.955Z,4.28
2023-04-20T00:53:32.725Z,4.80
2023-04-20T00:56:38.109Z,4.60
2023-04-20T00:59:45.791Z,4.30
2023-04-20T01:02:51.912Z,5.20
2023-04-20T01:05:56.974Z,3.40
2023-04-20T01:09:02.456Z,4.80
2023-04-20T01:12:07.565Z,4.03
2023-04-20T01:15:15.678Z,4.68
2023-04-20T01:18:20.648Z,4.25
2023-04-20T01:21:26.039Z,5.38
2023-04-20T01:24:37.144Z,4.65
2023-04-20T01:27:42.454Z,4.28
2023-04-20T01:30:47.428Z,4.80
2023-04-20T01:33:55.040Z,5.15
2023-04-20T01:37:01.523Z,4.85
2023-04-20T01:40:11.651Z,4.85
2023-04-20T01:43:16.817Z,4.13
2023-04-20T01:46:22.145Z,4.15
2023-04-20T01:49:27.186Z,4.13
2023-04-20T01:52:32.500Z,4.60
2023-04-20T01:55:42.321Z,4.28
2023-04-20T01:58:47.645Z,4.95
2023-04-20T02:01:53.693Z,4.43
2023-04-20T02:05:07.595Z,5.25
2023-04-20T02:08:13.591Z,4.60
2023-04-20T02:11:22.777Z,4.13
2023-04-20T02:14:28.120Z,5.18
2023-04-20T02:17:36.951Z,4.50
2023-04-20T02:20:42.390Z,5.60
2023-04-20T02:23:50.534Z,4.78
2023-04-20T02:26:59.074Z,3.95
2023-04-20T02:30:08.612Z,5.30
2023-04-20T02:33:13.706Z,5.00
2023-04-20T02:36:19.050Z,4.85
2023-04-20T02:39:24.030Z,4.95
2023-04-20T02:42:32.180Z,4.57
2023-04-20T02:45:37.445Z,5.80
2023-04-20T02:48:42.878Z,5.18
2023-04-20T02:51:47.900Z,6.35
2023-04-20T02:54:53.345Z,4.95
2023-04-20T02:58:00.964Z,5.22
2023-04-20T03:01:07.891Z,4.50
2023-04-20T03:04:14.924Z,6.15
2023-04-20T03:07:20.847Z,5.97
2023-04-20T03:10:25.965Z,5.90
2023-04-20T03:13:33.988Z,5.88
2023-04-20T03:16:41.977Z,5.60
2023-04-20T03:19:47.470Z,4.68
2023-04-20T03:22:55.272Z,6.03
2023-04-20T03:26:01.853Z,5.43
2023-04-20T03:29:09.435Z,6.32
2023-04-20T03:32:14.754Z,5.30
2023-04-20T03:35:21.138Z,5.60
2023-04-20T03:38:27.010Z,5.97
2023-04-20T03:41:34.162Z,5.38
2023-04-20T03:44:42.135Z,5.00
2023-04-20T03:47:47.130Z,5.35
2023-04-20T03:50:52.526Z,5.53
2023-04-20T03:53:57.515Z,5.32
2023-04-20T03:57:02.877Z,5.50
2023-04-20T04:00:12.703Z,4.95
2023-04-20T04:03:18.283Z,6.38
2023-04-20T04:06:23.450Z,5.85
2023-04-20T04:09:30.835Z,6.03
2023-04-20T04:12:36.284Z,6.50
2023-04-20T04:15:44.798Z,5.20
2023-04-20T04:18:50.208Z,6.15
2023-04-20T04:21:55.961Z,6.25
2023-04-20T04:25:01.239Z,5.18
2023-04-20T04:28:07.481Z,5.68
2023-04-20T04:31:18.411Z,5.63
2023-04-20T04:34:24.300Z,5.45
2023-04-20T04:37:32.762Z,5.65
2023-04-20T04:40:40.027Z,6.20
2023-04-20T04:43:45.122Z,5.97
2023-04-20T04:46:55.864Z,6.25
2023-04-20T04:50:02.135Z,5.78
2023-04-20T04:53:07.551Z,5.88
2023-04-20T04:56:13.495Z,5.60
2023-04-20T04:59:19.025Z,5.57
2023-04-20T05:02:29.080Z,5.85
2023-04-20T05:05:34.956Z,5.25
2023-04-20T05:08:40.264Z,5.88
2023-04-20T05:11:45.780Z,5.57
2023-04-20T05:14:51.158Z,5.20
2023-04-20T05:18:02.467Z,5.70
2023-04-20T05:21:07.645Z,5.00
2023-04-20T05:24:13.037Z,5.28
2023-04-20T05:27:18.022Z,4.82
2023-04-20T05:30:23.674Z,6.53
2023-04-20T05:33:31.425Z,5.47
2023-04-20T05:36:37.381Z,5.63
2023-04-20T05:39:42.361Z,5.63
2023-04-20T05:42:47.668Z,5.85
2023-04-20T05:45:52.706Z,5.75
2023-04-20T05:49:02.916Z,6.07
2023-04-20T05:52:10.197Z,6.07
2023-04-20T05:55:19.973Z,5.75
2023-04-20T05:58:27.538Z,5.65
2023-04-20T06:01:32.961Z,5.53
2023-04-20T06:04:42.688Z,6.00
2023-04-20T06:07:48.123Z,6.25
2023-04-20T06:10:56.333Z,6.00
2023-04-20T06:14:02.116Z,6.85
2023-04-20T06:17:07.192Z,6.63
2023-04-20T06:20:15.449Z,5.63
2023-04-20T06:23:23.452Z,6.32
2023-04-20T06:26:30.394Z,6.65
2023-04-20T06:29:35.359Z,7.28
2023-04-20T06:32:41.402Z,7.03
2023-04-20T06:35:49.077Z,6.35
2023-04-20T06:38:55.261Z,7.35
2023-04-20T06:42:00.348Z,8.15
2023-04-20T06:45:05.950Z,6.78
2023-04-20T06:48:24.036Z,6.07
2023-04-20T06:51:38.903Z,5.82
2023-04-20T06:54:43.948Z,5.22
2023-04-20T06:57:51.939Z,5.70
2023-04-20T07:00:56.934Z,5.32
2023-04-20T07:04:03.097Z,4.97
2023-04-20T07:07:10.845Z,5.28
2023-04-20T07:10:17.124Z,5.07
2023-04-20T07:13:22.126Z,5.43
2023-04-20T07:16:27.576Z,4.15
2023-04-20T07:19:32.944Z,4.80
2023-04-20T07:22:43.724Z,4.95
2023-04-20T07:25:48.737Z,5.18
2023-04-20T07:28:54.118Z,4.78
2023-04-20T07:35:06.426Z,4.90
2023-04-20T07:38:14.068Z,5.45
2023-04-20T07:41:19.635Z,6.57
2023-04-20T07:44:24.824Z,5.20
2023-04-20T07:47:33.075Z,7.20
2023-04-20T07:50:38.218Z,5.35
2023-04-20T07:53:49.366Z,4.53
2023-04-20T07:56:55.058Z,5.72
2023-04-20T08:00:00.462Z,5.47
2023-04-20T08:03:06.395Z,5.57
2023-04-20T08:06:12.897Z,5.18
2023-04-20T08:09:20.792Z,6.22
2023-04-20T08:12:26.498Z,5.30
2023-04-20T08:15:34.381Z,5.40
2023-04-20T08:18:42.559Z,5.43
2023-04-20T08:21:47.895Z,5.32
2023-04-20T08:24:56.031Z,5.72
2023-04-20T08:28:01.129Z,5.30
2023-04-20T08:31:06.665Z,4.65
2023-04-20T08:34:11.666Z,6.13
2023-04-20T08:37:17.038Z,5.85
2023-04-20T08:40:26.548Z,5.95
2023-04-20T08:43:32.340Z,6.72
2023-04-20T08:46:37.418Z,5.65
2023-04-20T08:49:47.293Z,5.88
2023-04-20T08:52:52.377Z,4.80
2023-04-20T08:56:02.369Z,5.22
2023-04-20T08:59:10.596Z,5.28
2023-04-20T09:02:16.856Z,5.63
2023-04-20T09:05:30.674Z,6.22
2023-04-20T09:08:39.550Z,6.05
2023-04-20T09:11:47.759Z,6.13
2023-04-20T09:14:53.541Z,6.40
2023-04-20T09:17:58.625Z,5.00
2023-04-20T09:21:10.726Z,6.18
2023-04-20T09:24:16.077Z,5.33
2023-04-20T09:27:26.430Z,6.25
2023-04-20T09:30:41.706Z,5.85
2023-04-20T09:33:47.133Z,6.15
2023-04-20T09:36:54.576Z,6.30
2023-04-20T09:40:03.292Z,7.40
2023-04-20T09:43:15.377Z,5.18
2023-04-20T09:49:25.695Z,5.10
2023-04-20T09:52:31.441Z,6.45
2023-04-20T09:55:38.703Z,5.57
2023-04-20T09:58:49.345Z,5.88
2023-04-20T10:01:54.354Z,6.13
2023-04-20T10:05:02.351Z,5.82
2023-04-20T10:08:07.465Z,5.93
2023-04-20T10:11:40.672Z,6.05
2023-04-20T10:15:01.770Z,5.85
2023-04-20T10:21:13.815Z,4.88
2023-04-20T10:24:20.420Z,6.35
2023-04-20T10:27:26.009Z,6.57
2023-04-20T10:30:34.559Z,5.68
2023-04-20T10:33:39.586Z,6.47
2023-04-20T10:36:45.322Z,6.13
2023-04-20T10:39:50.961Z,5.72
2023-04-20T10:42:57.547Z,6.93
2023-04-20T10:46:16.031Z,4.93
2023-04-20T10:49:21.852Z,5.03
2023-04-20T10:52:36.285Z,5.47
2023-04-20T10:55:41.743Z,5.70
2023-04-20T10:58:46.769Z,6.07
2023-04-20T11:01:55.905Z,5.47
2023-04-20T11:05:03.010Z,6.32
2023-04-20T11:08:08.480Z,5.40
2023-04-20T11:11:25.024Z,5.60
2023-04-20T11:14:30.704Z,6.25
2023-04-20T11:17:39.557Z,4.93
2023-04-20T11:20:53.118Z,6.03
2023-04-20T11:24:01.091Z,6.20
2023-04-20T11:27:09.899Z,5.40
2023-04-20T11:30:15.332Z,6.47
2023-04-20T11:33:31.125Z,5.40
2023-04-20T11:36:43.315Z,4.47
2023-04-20T11:42:53.793Z,5.40
2023-04-20T11:45:59.559Z,5.20
2023-04-20T11:49:07.531Z,6.65
2023-04-20T11:52:13.244Z,6.13
2023-04-20T11:55:18.259Z,6.28
2023-04-20T11:58:23.591Z,6.43
2023-04-20T12:01:28.681Z,5.68
2023-04-20T12:04:38.705Z,5.88
2023-04-20T12:07:44.203Z,5.95
2023-04-20T12:10:49.736Z,5.55
2023-04-20T12:13:55.683Z,6.72
2023-04-20T12:17:01.184Z,5.10
2023-04-20T12:20:12.530Z,6.20
2023-04-20T12:23:18.534Z,5.90
2023-04-20T12:26:34.813Z,5.60
2023-04-20T12:29:43.038Z,7.20
2023-04-20T12:32:48.135Z,6.30
2023-04-20T12:35:56.113Z,7.18
2023-04-20T12:39:01.993Z,6.15
2023-04-20T12:42:07.379Z,6.88
2023-04-20T12:45:12.601Z,5.75
2023-04-20T12:48:18.107Z,5.95
2023-04-20T12:51:27.509Z,7.07
2023-04-20T12:54:32.872Z,5.63
2023-04-20T12:57:37.953Z,6.43
2023-04-20T13:00:43.531Z,6.22
2023-04-20T13:03:48.728Z,6.97
2023-04-20T13:06:57.013Z,6.57
2023-04-20T13:10:04.031Z,5.93
2023-04-20T13:13:09.470Z,6.50
2023-04-20T13:16:14.648Z,5.35
2023-04-20T13:19:20.051Z,6.07
2023-04-20T13:22:29.122Z,5.70
2023-04-20T13:25:35.464Z,6.40
2023-04-20T13:28:40.944Z,6.18
2023-04-20T13:31:47.823Z,5.50
2023-04-20T13:34:52.850Z,6.22
2023-04-20T13:38:04.126Z,5.10
2023-04-20T13:41:12.475Z,6.60
2023-04-20T13:44:19.867Z,5.90
2023-04-20T13:47:25.748Z,5.70
2023-04-20T13:50:31.123Z,6.13
2023-04-20T13:53:38.768Z,6.13
2023-04-20T13:56:44.127Z,5.78
2023-04-20T13:59:49.508Z,5.93
2023-04-20T14:02:55.394Z,5.40
2023-04-20T14:06:00.931Z,6.15
2023-04-20T14:09:09.195Z,5.97
2023-04-20T14:12:14.531Z,5.43
2023-04-20T14:15:20.052Z,5.90
2023-04-20T14:18:28.749Z,5.22
2023-04-20T14:21:35.504Z,5.75
2023-04-20T14:24:45.546Z,6.97
2023-04-20T14:27:53.115Z,6.22
2023-04-20T14:30:58.169Z,7.03
2023-04-20T14:34:03.624Z,5.78
2023-04-20T14:37:09.933Z,6.15
2023-04-20T14:40:19.079Z,5.80
2023-04-20T14:43:24.232Z,6.22
2023-04-20T14:46:29.687Z,5.80
2023-04-20T14:49:36.873Z,6.00
2023-04-20T14:52:42.241Z,6.00
2023-04-20T14:55:50.580Z,7.38
2023-04-20T14:58:57.461Z,5.60
2023-04-20T15:02:03.579Z,5.30
2023-04-20T15:05:10.785Z,6.07
2023-04-20T15:08:16.237Z,5.82
2023-04-20T15:11:28.203Z,6.53
2023-04-20T15:14:34.033Z,6.07
2023-04-20T15:17:39.445Z,5.28
2023-04-20T15:20:44.874Z,5.75
2023-04-20T15:23:50.273Z,6.35
2023-04-20T15:26:59.213Z,5.70
2023-04-20T15:30:04.602Z,5.93
2023-04-20T15:33:09.665Z,6.28
2023-04-20T15:36:15.043Z,6.15
2023-04-20T15:39:20.082Z,6.03
2023-04-20T15:42:28.541Z,6.13
2023-04-20T15:45:33.785Z,5.20
2023-04-20T15:48:39.433Z,5.20
2023-04-20T15:51:54.719Z,4.80
2023-04-20T15:55:02.224Z,5.00
2023-04-20T15:58:11.508Z,5.50
2023-04-20T16:01:16.945Z,5.57
2023-04-20T16:04:22.316Z,6.13
2023-04-20T16:07:29.013Z,5.53
2023-04-20T16:10:34.401Z,5.30
2023-04-20T16:13:43.775Z,5.53
2023-04-20T16:16:48.826Z,4.95
2023-04-20T16:19:54.216Z,5.35
2023-04-20T16:23:00.636Z,5.38
2023-04-20T16:26:06.536Z,5.72
2023-04-20T16:29:16.692Z,4.88
2023-04-20T16:32:24.612Z,5.30
2023-04-20T16:35:29.834Z,6.15
2023-04-20T16:38:35.254Z,4.85
2023-04-20T16:41:40.249Z,5.40
2023-04-20T16:44:48.234Z,5.53
2023-04-20T16:47:54.070Z,5.05
2023-04-20T16:50:59.569Z,5.72
2023-04-20T16:54:04.607Z,5.72
2023-04-20T16:57:10.011Z,5.65
2023-04-20T17:00:18.734Z,5.55
2023-04-20T17:03:24.225Z,5.00
2023-04-20T17:06:29.341Z,5.03
2023-04-20T17:09:34.971Z,5.07
2023-04-20T17:12:41.601Z,5.72
2023-04-20T17:15:49.748Z,5.82
2023-04-20T17:18:54.987Z,5.68
2023-04-20T17:22:03.706Z,5.35
2023-04-20T17:25:09.293Z,5.25
2023-04-20T17:28:14.668Z,5.43
2023-04-20T17:31:22.928Z,5.75
2023-04-20T17:34:28.445Z,5.38
2023-04-20T17:37:36.577Z,6.50
2023-04-20T17:40:45.287Z,5.53
2023-04-20T17:43:50.329Z,5.82
2023-04-20T17:46:59.518Z,6.25
2023-04-20T17:50:05.580Z,6.88
2023-04-20T17:53:10.945Z,6.30
2023-04-20T17:56:16.248Z,5.75
2023-04-20T17:59:22.823Z,7.07
2023-04-20T18:02:30.752Z,5.03
2023-04-20T18:05:37.620Z,6.28
2023-04-20T18:08:42.665Z,5.75
2023-04-20T18:11:48.029Z,6.28
2023-04-20T18:14:53.259Z,6.03
2023-04-20T18:18:04.545Z,5.22
2023-04-20T18:21:10.057Z,5.97
2023-04-20T18:24:19.408Z,6.95
2023-04-20T18:27:24.540Z,6.80
2023-04-20T18:30:30.609Z,6.30
2023-04-20T18:33:41.325Z,6.28
2023-04-20T18:36:50.266Z,5.60
2023-04-20T18:39:56.169Z,6.18
2023-04-20T18:43:01.667Z,6.32
2023-04-20T18:46:06.864Z,6.55
2023-04-20T18:49:16.190Z,6.50
2023-04-20T18:52:22.406Z,7.43
2023-04-20T18:55:28.357Z,6.72
2023-04-20T18:58:33.928Z,6.53
2023-04-20T19:01:40.873Z,6.30
2023-04-20T19:04:48.995Z,6.85
2023-04-20T19:07:59.181Z,6.18
2023-04-20T19:11:07.119Z,7.30
2023-04-20T19:14:13.154Z,6.45
2023-04-20T19:17:18.169Z,6.10
2023-04-20T19:20:26.648Z,6.65
2023-04-20T19:23:31.935Z,6.60
2023-04-20T19:26:37.296Z,6.35
2023-04-20T19:29:43.043Z,7.60
2023-04-20T19:32:48.538Z,6.55
2023-04-20T19:35:58.128Z,7.45
2023-04-20T19:39:04.380Z,6.38
2023-04-20T19:42:09.446Z,7.32
2023-04-20T19:45:15.321Z,6.57
2023-04-20T19:48:21.765Z,6.75
2023-04-20T19:51:30.731Z,7.65
2023-04-20T19:54:36.084Z,7.82
2023-04-20T19:57:41.583Z,7.35
2023-04-20T20:00:46.559Z,6.78
2023-04-20T20:03:52.229Z,6.05
2023-04-20T20:07:00.308Z,7.00
2023-04-20T20:10:07.616Z,6.85
2023-04-20T20:13:12.651Z,7.32
2023-04-20T20:16:19.608Z,7.45
2023-04-20T20:19:28.090Z,7.80
2023-04-20T20:22:38.274Z,7.72
2023-04-20T20:25:43.745Z,7.95
2023-04-20T20:28:49.856Z,7.57
2023-04-20T20:31:55.429Z,7.32
2023-04-20T20:35:02.197Z,8.27
2023-04-20T20:38:11.278Z,8.18
2023-04-20T20:41:18.674Z,8.23
2023-04-20T20:44:24.030Z,7.88
2023-04-20T20:47:31.143Z,8.90
2023-04-20T20:50:38.054Z,7.53
2023-04-20T20:53:46.536Z,7.53
2023-04-20T20:56:54.165Z,7.38
2023-04-20T20:59:59.836Z,6.28
2023-04-20T21:03:06.668Z,6.43
2023-04-20T21:06:14.483Z,6.80
2023-04-20T21:09:22.199Z,6.22
2023-04-20T21:12:28.919Z,6.55
2023-04-20T21:15:36.318Z,6.55
2023-04-20T21:18:49.817Z,5.93
2023-04-20T21:21:56.114Z,7.05
2023-04-20T21:25:04.217Z,7.03
2023-04-20T21:28:09.218Z,5.35
2023-04-20T21:31:15.064Z,6.70
2023-04-20T21:34:21.188Z,5.55
2023-04-20T21:37:27.937Z,6.03
2023-04-20T21:40:38.126Z,5.47
2023-04-20T21:43:43.833Z,6.32
2023-04-20T21:46:48.824Z,5.40
2023-04-20T21:49:54.205Z,6.72
2023-04-20T21:53:02.314Z,5.50
2023-04-20T21:56:10.788Z,5.90
2023-04-20T21:59:18.454Z,5.85
2023-04-20T22:02:25.010Z,6.18
2023-04-20T22:05:31.080Z,5.43
2023-04-20T22:08:42.191Z,5.68
2023-04-20T22:11:53.416Z,5.57
2023-04-20T22:15:05.575Z,5.70
2023-04-20T22:18:11.571Z,3.95
2023-04-20T22:21:17.007Z,4.57
2023-04-20T22:24:22.012Z,6.72
2023-04-20T22:27:32.198Z,4.53
2023-04-20T22:30:37.240Z,5.40
2023-04-20T22:33:44.155Z,5.53
2023-04-20T22:36:49.464Z,5.30
2023-04-20T22:39:54.791Z,5.05
2023-04-20T22:43:02.498Z,4.43
2023-04-20T22:46:07.955Z,5.25
2023-04-20T22:49:13.437Z,5.18
2023-04-20T22:52:21.733Z,6.20
2023-04-20T22:55:27.184Z,4.97
2023-04-20T22:58:37.213Z,4.72
2023-04-20T23:01:42.219Z,5.55
2023-04-20T23:04:47.574Z,5.40
2023-04-20T23:07:54.100Z,4.18
2023-04-20T23:10:59.594Z,4.80
2023-04-20T23:14:07.277Z,5.22
2023-04-20T23:17:13.975Z,4.20
2023-04-20T23:20:19.019Z,5.53
2023-04-20T23:23:26.153Z,5.22
2023-04-20T23:26:32.476Z,4.38
2023-04-20T23:29:40.501Z,4.20
2023-04-20T23:32:45.810Z,4.45
2023-04-20T23:35:52.544Z,4.75
2023-04-20T23:39:01.209Z,5.50
2023-04-20T23:42:07.938Z,4.82
2023-04-20T23:45:15.743Z,4.55
2023-04-20T23:48:21.073Z,4.63
2023-04-20T23:51:26.383Z,4.70
2023-04-20T23:54:33.360Z,4.47
2023-04-20T23:57:38.597Z,4.60
